Time;durP1;ratioP1;P1;durP2;ratioP2;P2;SDS_P1;SDS_P2;PMS_P1;PMS_P2;Temp;Humidity;BMP_temperature;BMP_pressure;BME280_temperature;BME280_humidity;BME280_pressure;Samples;Min_cycle;Max_cycle;Signal;HPM_P1;HPM_P2
2022/10/14 00:00:29;;;;;;;37.67;20.55;;;;;;;;;;4938114;29;20051;-76
2022/10/14 00:03:14;;;;;;;32.47;19.70;;;;;;;;;;4938438;29;20047;-76
2022/10/14 00:06:02;;;;;;;34.70;20.13;;;;;;;;;;4938400;29;20048;-75
2022/10/14 00:08:47;;;;;;;30.23;18.35;;;;;;;;;;4938253;29;20044;-75
2022/10/14 00:11:35;;;;;;;32.95;20.27;;;;;;;;;;4944481;29;20048;-76
2022/10/14 00:14:21;;;;;;;38.72;20.50;;;;;;;;;;4944247;29;20056;-76
2022/10/14 00:17:07;;;;;;;28.25;19.13;;;;;;;;;;4944819;29;20039;-76
2022/10/14 00:19:52;;;;;;;29.15;18.10;;;;;;;;;;4938533;29;20040;-76
2022/10/14 00:22:37;;;;;;;29.13;19.38;;;;;;;;;;4937790;29;20047;-76
2022/10/14 00:25:25;;;;;;;28.60;18.33;;;;;;;;;;4938424;29;20051;-76
2022/10/14 00:28:09;;;;;;;35.47;19.02;;;;;;;;;;4937389;29;20051;-76
2022/10/14 00:30:59;;;;;;;32.10;18.83;;;;;;;;;;4938034;29;20047;-76
2022/10/14 00:33:45;;;;;;;33.35;19.40;;;;;;;;;;4937673;29;20048;-76
2022/10/14 00:36:30;;;;;;;30.10;18.83;;;;;;;;;;4937298;29;20039;-76
2022/10/14 00:39:16;;;;;;;30.83;19.80;;;;;;;;;;4936582;29;20052;-76
2022/10/14 00:42:01;;;;;;;32.97;19.15;;;;;;;;;;4937188;29;20486;-76
2022/10/14 00:44:50;;;;;;;26.90;18.15;;;;;;;;;;4942859;29;20047;-76
2022/10/14 00:47:36;;;;;;;29.73;19.05;;;;;;;;;;4937710;29;20398;-76
2022/10/14 00:50:26;;;;;;;31.13;18.20;;;;;;;;;;4939474;29;20043;-76
2022/10/14 00:53:12;;;;;;;32.03;19.48;;;;;;;;;;4937266;29;20051;-76
2022/10/14 00:55:58;;;;;;;37.63;19.33;;;;;;;;;;4943015;29;20035;-77
2022/10/14 00:58:44;;;;;;;34.45;18.92;;;;;;;;;;4937066;29;20060;-77
2022/10/14 01:01:30;;;;;;;35.47;19.75;;;;;;;;;;4937339;29;20051;-76
2022/10/14 01:04:15;;;;;;;36.30;18.60;;;;;;;;;;4936708;29;20055;-76
2022/10/14 01:07:12;;;;;;;30.88;19.02;;;;;;;;;;4942309;29;20047;-76
2022/10/14 01:10:34;;;;;;;35.10;19.40;;;;;;;;;;4937365;29;20043;-76
2022/10/14 01:13:34;;;;;;;32.90;18.27;;;;;;;;;;4942484;29;20036;-76
2022/10/14 01:16:34;;;;;;;38.42;21.48;;;;;;;;;;4943663;29;20044;-76
2022/10/14 01:19:59;;;;;;;34.92;21.70;;;;;;;;;;4936552;29;20048;-76
2022/10/14 01:23:06;;;;;;;38.67;20.63;;;;;;;;;;4942187;29;20043;-76
2022/10/14 01:26:17;;;;;;;33.33;19.98;;;;;;;;;;4941861;29;20493;-76
2022/10/14 01:29:40;;;;;;;34.67;19.13;;;;;;;;;;4937139;29;20043;-76
2022/10/14 01:33:27;;;;;;;36.92;19.92;;;;;;;;;;4941991;29;20036;-76
2022/10/14 01:36:15;;;;;;;41.78;20.98;;;;;;;;;;4896997;29;20039;-76
2022/10/14 01:39:04;;;;;;;40.42;21.15;;;;;;;;;;4941941;29;20052;-76
2022/10/14 01:41:57;;;;;;;40.45;20.55;;;;;;;;;;4922299;29;20051;-76
2022/10/14 01:44:48;;;;;;;32.53;21.17;;;;;;;;;;4936352;29;20052;-76
2022/10/14 01:47:35;;;;;;;32.75;20.77;;;;;;;;;;4936134;29;20044;-76
2022/10/14 01:50:24;;;;;;;31.40;20.13;;;;;;;;;;4938647;29;20056;-76
2022/10/14 01:53:19;;;;;;;31.20;20.20;;;;;;;;;;4942505;29;20052;-76
2022/10/14 01:56:06;;;;;;;38.42;22.40;;;;;;;;;;4941716;29;20043;-76
2022/10/14 01:58:52;;;;;;;34.80;21.98;;;;;;;;;;4941579;29;20043;-76
2022/10/14 02:01:37;;;;;;;39.15;23.42;;;;;;;;;;4941540;29;20051;-76
2022/10/14 02:04:24;;;;;;;36.50;22.40;;;;;;;;;;4941843;29;20051;-76
2022/10/14 02:07:26;;;;;;;38.13;23.08;;;;;;;;;;4941256;29;20067;-76
2022/10/14 02:10:33;;;;;;;37.95;24.17;;;;;;;;;;4941921;29;20047;-76
2022/10/14 02:14:08;;;;;;;48.35;27.70;;;;;;;;;;4936202;29;20040;-76
2022/10/14 02:17:00;;;;;;;49.43;29.80;;;;;;;;;;4852447;29;20045;-76
2022/10/14 02:20:01;;;;;;;54.13;30.17;;;;;;;;;;4852343;29;20054;-76
2022/10/14 02:22:53;;;;;;;55.80;31.65;;;;;;;;;;4930880;29;20047;-76
2022/10/14 02:25:41;;;;;;;58.28;30.20;;;;;;;;;;4942036;29;20040;-76
2022/10/14 02:28:28;;;;;;;59.08;33.78;;;;;;;;;;4941455;29;20047;-76
2022/10/14 02:31:16;;;;;;;55.03;33.22;;;;;;;;;;4941653;29;20258;-76
2022/10/14 02:34:08;;;;;;;63.42;32.38;;;;;;;;;;4936345;29;20051;-76
2022/10/14 02:36:56;;;;;;;62.22;33.03;;;;;;;;;;4935873;29;20040;-76
2022/10/14 02:39:47;;;;;;;59.17;33.58;;;;;;;;;;4936042;29;20486;-76
2022/10/14 02:42:33;;;;;;;57.63;33.03;;;;;;;;;;4935919;29;20039;-76
2022/10/14 02:45:25;;;;;;;60.28;32.60;;;;;;;;;;4941347;29;20052;-76
2022/10/14 02:48:11;;;;;;;57.97;31.60;;;;;;;;;;4935113;29;20044;-76
2022/10/14 02:50:57;;;;;;;58.80;30.58;;;;;;;;;;4935673;29;20490;-76
2022/10/14 02:53:42;;;;;;;51.63;30.75;;;;;;;;;;4941322;29;20406;-76
2022/10/14 02:56:28;;;;;;;53.25;31.50;;;;;;;;;;4935876;29;20043;-76
2022/10/14 02:59:14;;;;;;;56.47;32.08;;;;;;;;;;4941092;29;20043;-76
2022/10/14 03:01:59;;;;;;;59.38;32.78;;;;;;;;;;4943204;29;20044;-76
2022/10/14 03:04:46;;;;;;;64.43;34.60;;;;;;;;;;4945196;29;20043;-76
2022/10/14 03:07:31;;;;;;;57.22;34.67;;;;;;;;;;4939168;29;20048;-76
2022/10/14 03:10:21;;;;;;;59.03;33.90;;;;;;;;;;4944626;29;20039;-76
2022/10/14 03:13:07;;;;;;;54.95;32.20;;;;;;;;;;4944668;29;20482;-76
2022/10/14 03:15:58;;;;;;;51.85;31.73;;;;;;;;;;4944524;29;20048;-76
2022/10/14 03:18:45;;;;;;;55.90;31.38;;;;;;;;;;4944304;29;20052;-76
2022/10/14 03:21:45;;;;;;;53.00;31.13;;;;;;;;;;4939176;29;20486;-76
2022/10/14 03:24:36;;;;;;;52.28;30.67;;;;;;;;;;4944353;29;20063;-76
2022/10/14 03:27:44;;;;;;;48.90;31.50;;;;;;;;;;4943863;29;20039;-76
2022/10/14 03:30:39;;;;;;;52.08;29.50;;;;;;;;;;4945255;29;20059;-76
2022/10/14 03:33:32;;;;;;;52.85;30.58;;;;;;;;;;4943905;29;20405;-77
2022/10/14 03:36:26;;;;;;;70.43;40.33;;;;;;;;;;4943899;29;20047;-76
2022/10/14 03:39:14;;;;;;;85.70;45.28;;;;;;;;;;4944406;29;20048;-76
2022/10/14 03:42:04;;;;;;;97.80;48.65;;;;;;;;;;4944151;29;20048;-76
2022/10/14 03:44:58;;;;;;;84.28;41.97;;;;;;;;;;4944086;29;20047;-75
2022/10/14 03:47:47;;;;;;;68.88;39.88;;;;;;;;;;4943286;29;20048;-75
2022/10/14 03:50:33;;;;;;;63.22;36.13;;;;;;;;;;4940481;29;20056;-75
2022/10/14 03:53:19;;;;;;;63.63;34.40;;;;;;;;;;4943956;29;20051;-76
2022/10/14 03:56:04;;;;;;;62.15;33.55;;;;;;;;;;4943572;29;20043;-75
2022/10/14 03:58:51;;;;;;;50.67;32.38;;;;;;;;;;4943740;29;20044;-76
2022/10/14 04:01:37;;;;;;;52.13;31.45;;;;;;;;;;4943581;29;20039;-76
2022/10/14 04:04:38;;;;;;;58.03;31.83;;;;;;;;;;4943911;29;20044;-76
2022/10/14 04:07:23;;;;;;;55.15;32.13;;;;;;;;;;4938264;29;20052;-76
2022/10/14 04:10:14;;;;;;;49.15;29.50;;;;;;;;;;4943445;29;20047;-76
2022/10/14 04:13:05;;;;;;;51.65;30.20;;;;;;;;;;4943221;29;20044;-76
2022/10/14 04:15:55;;;;;;;48.83;30.60;;;;;;;;;;4937823;29;20389;-76
2022/10/14 04:18:46;;;;;;;55.05;31.52;;;;;;;;;;4943299;29;20048;-75
2022/10/14 04:21:35;;;;;;;50.50;29.20;;;;;;;;;;4930551;29;20051;-76
2022/10/14 04:24:21;;;;;;;52.80;30.83;;;;;;;;;;4943279;29;20039;-75
2022/10/14 04:27:14;;;;;;;50.17;30.55;;;;;;;;;;4943191;29;20052;-75
2022/10/14 04:30:19;;;;;;;51.05;29.65;;;;;;;;;;4943172;29;20043;-76
2022/10/14 04:33:10;;;;;;;48.90;30.15;;;;;;;;;;4937978;29;20055;-75
2022/10/14 04:36:03;;;;;;;47.65;30.30;;;;;;;;;;4943711;29;20060;-76
2022/10/14 04:38:53;;;;;;;49.08;29.65;;;;;;;;;;4942753;29;20055;-76
2022/10/14 04:41:38;;;;;;;49.00;29.13;;;;;;;;;;4942935;29;20044;-76
2022/10/14 04:44:24;;;;;;;48.72;29.88;;;;;;;;;;4942940;29;20048;-76
2022/10/14 04:47:13;;;;;;;53.63;29.17;;;;;;;;;;4942633;29;20048;-77
2022/10/14 04:49:58;;;;;;;49.55;30.45;;;;;;;;;;4941632;29;20047;-77
2022/10/14 04:52:47;;;;;;;52.45;30.20;;;;;;;;;;4942676;29;20047;-76
2022/10/14 04:55:32;;;;;;;55.72;32.55;;;;;;;;;;4942709;29;20043;-76
2022/10/14 04:58:18;;;;;;;50.05;30.33;;;;;;;;;;4942806;29;20040;-77
2022/10/14 05:01:05;;;;;;;55.55;29.90;;;;;;;;;;4942625;29;20047;-77
2022/10/14 05:03:55;;;;;;;48.75;30.73;;;;;;;;;;4942561;29;20048;-76
2022/10/14 05:06:40;;;;;;;54.22;29.98;;;;;;;;;;4942224;29;20048;-76
2022/10/14 05:09:28;;;;;;;56.00;31.58;;;;;;;;;;4942524;29;20051;-76
2022/10/14 05:12:14;;;;;;;51.15;30.98;;;;;;;;;;4942493;29;20047;-77
2022/10/14 05:15:06;;;;;;;53.17;31.48;;;;;;;;;;4942538;29;20406;-76
2022/10/14 05:17:59;;;;;;;57.70;31.70;;;;;;;;;;4942591;29;20047;-76
2022/10/14 05:20:59;;;;;;;53.65;29.92;;;;;;;;;;4941882;29;20486;-76
2022/10/14 05:23:51;;;;;;;53.72;31.85;;;;;;;;;;4941660;29;20051;-76
2022/10/14 05:26:37;;;;;;;59.85;32.67;;;;;;;;;;4941817;29;20583;-76
2022/10/14 05:29:25;;;;;;;69.68;31.35;;;;;;;;;;4940878;29;20055;-76
2022/10/14 05:32:12;;;;;;;55.92;31.77;;;;;;;;;;4940317;29;20048;-77
2022/10/14 05:35:05;;;;;;;50.72;29.90;;;;;;;;;;4942121;29;20073;-77
2022/10/14 05:37:56;;;;;;;45.00;26.20;;;;;;;;;;4941937;29;20470;-76
2022/10/14 05:40:42;;;;;;;46.30;25.52;;;;;;;;;;4940650;29;20039;-77
2022/10/14 05:43:28;;;;;;;38.53;23.63;;;;;;;;;;4942161;29;20047;-76
2022/10/14 05:46:14;;;;;;;40.05;25.63;;;;;;;;;;4941807;29;20039;-77
2022/10/14 05:49:04;;;;;;;41.63;24.95;;;;;;;;;;4941616;29;20401;-76
2022/10/14 05:51:52;;;;;;;41.80;25.15;;;;;;;;;;4942083;29;20044;-76
2022/10/14 05:54:41;;;;;;;42.92;25.77;;;;;;;;;;4941844;29;20051;-77
2022/10/14 05:57:27;;;;;;;44.92;25.73;;;;;;;;;;4941090;29;20036;-76
2022/10/14 06:00:13;;;;;;;45.92;27.38;;;;;;;;;;4942151;29;20060;-76
2022/10/14 06:03:02;;;;;;;51.58;28.05;;;;;;;;;;4935861;29;20044;-76
2022/10/14 06:05:47;;;;;;;49.83;27.58;;;;;;;;;;4942057;29;20406;-75
2022/10/14 06:08:33;;;;;;;48.85;27.00;;;;;;;;;;4941624;29;20044;-76
2022/10/14 06:11:19;;;;;;;44.28;25.30;;;;;;;;;;4936273;29;20044;-76
2022/10/14 06:14:05;;;;;;;37.88;23.60;;;;;;;;;;4942019;29;20048;-76
2022/10/14 06:16:50;;;;;;;42.05;24.85;;;;;;;;;;4941277;29;20406;-76
2022/10/14 06:19:36;;;;;;;46.63;23.65;;;;;;;;;;4941425;29;20039;-76
2022/10/14 06:22:21;;;;;;;40.35;23.42;;;;;;;;;;4942775;29;20052;-76
2022/10/14 06:25:07;;;;;;;36.35;23.25;;;;;;;;;;4942213;29;20043;-76
2022/10/14 06:27:52;;;;;;;46.42;23.80;;;;;;;;;;4936188;29;20040;-76
2022/10/14 06:30:38;;;;;;;41.55;23.65;;;;;;;;;;4936132;29;20047;-76
2022/10/14 06:33:24;;;;;;;37.58;24.17;;;;;;;;;;4936277;29;20048;-76
2022/10/14 06:36:09;;;;;;;40.63;22.77;;;;;;;;;;4938187;29;20047;-76
2022/10/14 06:38:55;;;;;;;40.30;24.13;;;;;;;;;;4946314;29;20040;-76
2022/10/14 06:41:40;;;;;;;43.20;24.00;;;;;;;;;;4940107;29;20401;-76
2022/10/14 06:44:37;;;;;;;42.65;24.20;;;;;;;;;;4939212;29;20047;-76
2022/10/14 06:47:22;;;;;;;37.80;23.50;;;;;;;;;;4939327;29;20040;-77
2022/10/14 06:50:08;;;;;;;33.17;21.75;;;;;;;;;;4939659;29;20047;-77
2022/10/14 06:52:54;;;;;;;40.58;22.92;;;;;;;;;;4939558;29;20047;-75
2022/10/14 06:55:39;;;;;;;40.35;22.88;;;;;;;;;;4939665;29;20043;-75
2022/10/14 06:58:25;;;;;;;31.40;22.30;;;;;;;;;;4945490;29;20044;-75
2022/10/14 07:01:10;;;;;;;39.75;22.38;;;;;;;;;;4938618;29;20048;-76
2022/10/14 07:03:56;;;;;;;30.75;19.45;;;;;;;;;;4939722;29;20048;-77
2022/10/14 07:06:42;;;;;;;30.38;19.55;;;;;;;;;;4939338;29;20044;-75
2022/10/14 07:09:28;;;;;;;30.42;19.25;;;;;;;;;;4939568;29;20043;-74
2022/10/14 07:12:13;;;;;;;27.92;17.25;;;;;;;;;;4945533;29;20051;-75
2022/10/14 07:14:58;;;;;;;28.88;18.05;;;;;;;;;;4945554;29;20043;-74
2022/10/14 07:17:44;;;;;;;24.55;15.38;;;;;;;;;;4939156;29;20043;-75
2022/10/14 07:20:29;;;;;;;22.65;14.00;;;;;;;;;;4938219;29;20043;-75
2022/10/14 07:23:15;;;;;;;17.42;12.85;;;;;;;;;;4939131;29;20051;-75
2022/10/14 07:26:02;;;;;;;22.33;14.60;;;;;;;;;;4939448;29;20159;-74
2022/10/14 07:28:47;;;;;;;24.25;13.93;;;;;;;;;;4938731;29;20047;-74
2022/10/14 07:31:33;;;;;;;21.83;13.90;;;;;;;;;;4939366;29;20385;-74
2022/10/14 07:34:19;;;;;;;27.00;15.07;;;;;;;;;;4939376;29;20044;-75
2022/10/14 07:37:05;;;;;;;21.65;13.93;;;;;;;;;;4938791;29;20401;-75
2022/10/14 07:39:50;;;;;;;22.13;14.52;;;;;;;;;;4939254;29;20055;-76
2022/10/14 07:42:35;;;;;;;21.63;15.35;;;;;;;;;;4938644;29;20048;-77
2022/10/14 07:45:21;;;;;;;21.17;12.95;;;;;;;;;;4945076;29;20052;-75
2022/10/14 07:48:07;;;;;;;24.27;13.23;;;;;;;;;;4937432;29;20044;-75
2022/10/14 07:50:52;;;;;;;20.17;13.73;;;;;;;;;;4940915;29;20059;-77
2022/10/14 07:53:38;;;;;;;24.50;14.85;;;;;;;;;;4938635;29;20048;-76
2022/10/14 07:56:23;;;;;;;21.70;14.20;;;;;;;;;;4938570;29;20051;-77
2022/10/14 07:59:09;;;;;;;21.98;12.93;;;;;;;;;;4938629;29;20043;-76
2022/10/14 08:01:55;;;;;;;20.83;13.38;;;;;;;;;;4938451;29;20495;-75
2022/10/14 08:04:40;;;;;;;20.52;13.50;;;;;;;;;;4944919;29;20040;-75
2022/10/14 08:07:26;;;;;;;21.10;13.05;;;;;;;;;;4938309;29;20044;-75
2022/10/14 08:10:11;;;;;;;21.80;12.63;;;;;;;;;;4944459;29;20397;-77
2022/10/14 08:12:57;;;;;;;20.42;11.82;;;;;;;;;;4937963;29;20044;-75
2022/10/14 08:15:42;;;;;;;17.35;10.95;;;;;;;;;;4938503;29;20489;-77
2022/10/14 08:18:35;;;;;;;20.73;11.60;;;;;;;;;;4938025;29;20039;-76
2022/10/14 08:21:24;;;;;;;20.45;11.88;;;;;;;;;;4937406;29;20047;-75
2022/10/14 08:24:10;;;;;;;18.40;11.00;;;;;;;;;;4937849;29;20047;-75
2022/10/14 08:26:59;;;;;;;15.50;11.25;;;;;;;;;;4944130;29;20047;-75
2022/10/14 08:29:44;;;;;;;20.45;11.18;;;;;;;;;;4938635;29;20051;-76
2022/10/14 08:32:30;;;;;;;14.85;10.10;;;;;;;;;;4938611;29;20051;-77
2022/10/14 08:35:15;;;;;;;17.70;10.60;;;;;;;;;;4945235;29;20051;-75
2022/10/14 08:38:01;;;;;;;17.85;10.48;;;;;;;;;;4937980;29;20032;-77
2022/10/14 08:41:12;;;;;;;15.23;10.13;;;;;;;;;;4938369;29;20047;-76
2022/10/14 08:44:17;;;;;;;15.85;10.38;;;;;;;;;;4937988;29;20482;-76
2022/10/14 08:47:04;;;;;;;19.75;10.63;;;;;;;;;;4933984;29;20052;-74
2022/10/14 08:50:16;;;;;;;14.82;9.60;;;;;;;;;;4937544;29;20048;-75
2022/10/14 08:53:17;;;;;;;16.50;10.10;;;;;;;;;;4941030;29;20134;-76
2022/10/14 08:56:03;;;;;;;16.70;10.73;;;;;;;;;;4937482;29;20043;-78
2022/10/14 08:58:51;;;;;;;15.88;9.50;;;;;;;;;;4937720;29;20040;-75
2022/10/14 09:01:48;;;;;;;16.63;9.43;;;;;;;;;;4937226;29;20477;-77
2022/10/14 09:04:34;;;;;;;15.00;8.77;;;;;;;;;;4937210;29;20051;-76
2022/10/14 09:07:20;;;;;;;16.30;8.85;;;;;;;;;;4942392;29;20048;-76
2022/10/14 09:10:11;;;;;;;15.82;7.53;;;;;;;;;;4937388;29;20051;-76
2022/10/14 09:13:18;;;;;;;15.00;8.40;;;;;;;;;;4937102;29;20401;-77
2022/10/14 09:16:11;;;;;;;14.20;8.43;;;;;;;;;;4932294;29;20055;-76
2022/10/14 09:19:01;;;;;;;15.23;7.80;;;;;;;;;;4937071;29;20048;-76
2022/10/14 09:21:53;;;;;;;14.05;5.82;;;;;;;;;;4937419;29;20051;-76
2022/10/14 09:24:38;;;;;;;9.50;4.93;;;;;;;;;;4936938;29;20394;-77
2022/10/14 09:27:27;;;;;;;10.98;5.05;;;;;;;;;;4936661;29;20048;-78
2022/10/14 09:30:15;;;;;;;8.93;4.80;;;;;;;;;;4922615;29;20493;-77
2022/10/14 09:33:02;;;;;;;8.52;5.05;;;;;;;;;;4937074;29;20047;-76
2022/10/14 09:35:48;;;;;;;10.38;4.45;;;;;;;;;;4936917;29;20052;-77
2022/10/14 09:38:33;;;;;;;5.70;3.60;;;;;;;;;;4943251;29;20051;-75
2022/10/14 09:41:29;;;;;;;10.73;3.83;;;;;;;;;;4936793;29;20043;-76
2022/10/14 09:44:24;;;;;;;6.05;3.72;;;;;;;;;;4936905;29;20051;-75
2022/10/14 09:47:11;;;;;;;;;;;;;;;;;;4937217;29;20414;-77
2022/10/14 09:49:59;;;;;;;5.47;3.03;;;;;;;;;;4936712;29;19918;-75
2022/10/14 09:52:51;;;;;;;11.95;3.47;;;;;;;;;;4943267;29;20052;-77
2022/10/14 09:55:45;;;;;;;11.50;3.10;;;;;;;;;;4936766;29;20040;-75
2022/10/14 09:58:34;;;;;;;4.55;2.40;;;;;;;;;;4936616;29;20048;-74
2022/10/14 10:01:26;;;;;;;5.78;2.70;;;;;;;;;;4936579;29;20052;-75
2022/10/14 10:04:26;;;;;;;6.78;3.40;;;;;;;;;;4936539;29;20047;-75
2022/10/14 10:07:31;;;;;;;7.30;4.00;;;;;;;;;;4935848;29;20055;-74
2022/10/14 10:10:19;;;;;;;11.48;4.07;;;;;;;;;;4937166;29;20051;-74
2022/10/14 10:13:31;;;;;;;5.97;3.97;;;;;;;;;;4942868;29;20039;-74
2022/10/14 10:16:33;;;;;;;11.43;4.32;;;;;;;;;;4942730;29;20047;-75
2022/10/14 10:19:26;;;;;;;7.75;4.32;;;;;;;;;;4949256;29;20051;-75
2022/10/14 10:22:35;;;;;;;10.88;4.78;;;;;;;;;;4942655;29;20047;-77
2022/10/14 10:25:25;;;;;;;8.43;3.95;;;;;;;;;;4929328;29;20055;-74
2022/10/14 10:28:31;;;;;;;7.75;4.28;;;;;;;;;;4942251;29;20040;-73
2022/10/14 10:31:42;;;;;;;12.65;4.45;;;;;;;;;;4942393;29;20494;-73
2022/10/14 10:34:45;;;;;;;9.98;4.22;;;;;;;;;;4942496;29;20048;-74
2022/10/14 10:37:59;;;;;;;9.10;4.03;;;;;;;;;;4942195;29;20047;-76
2022/10/14 10:41:03;;;;;;;7.57;4.05;;;;;;;;;;4921157;29;20048;-73
2022/10/14 10:44:06;;;;;;;9.70;4.57;;;;;;;;;;4941196;29;20047;-74
2022/10/14 10:47:27;;;;;;;4.75;3.60;;;;;;;;;;4942493;29;20047;-74
2022/10/14 10:50:27;;;;;;;11.38;4.80;;;;;;;;;;4942087;29;20171;-75
2022/10/14 10:53:40;;;;;;;6.93;4.35;;;;;;;;;;4948701;29;20039;-75
2022/10/14 10:56:32;;;;;;;6.05;3.95;;;;;;;;;;4942223;29;20043;-74
2022/10/14 10:59:30;;;;;;;6.85;3.47;;;;;;;;;;4942411;29;20044;-75
2022/10/14 11:02:32;;;;;;;12.20;4.20;;;;;;;;;;4942340;29;20056;-75
2022/10/14 11:05:44;;;;;;;7.10;4.30;;;;;;;;;;4942225;29;20459;-75
2022/10/14 11:12:14;;;;;;;9.77;5.40;;;;;;;;;;4942255;29;20039;-74
2022/10/14 11:15:02;;;;;;;8.88;4.93;;;;;;;;;;4942068;29;20493;-74
2022/10/14 11:18:02;;;;;;;14.30;5.60;;;;;;;;;;4942383;29;20044;-75
2022/10/14 11:21:02;;;;;;;11.43;4.38;;;;;;;;;;4944241;29;20044;-75
2022/10/14 11:24:05;;;;;;;5.28;3.58;;;;;;;;;;4934546;29;20043;-74
2022/10/14 11:27:04;;;;;;;6.43;4.07;;;;;;;;;;4938900;29;20048;-75
2022/10/14 11:30:15;;;;;;;8.85;4.30;;;;;;;;;;4939495;29;20039;-75
2022/10/14 11:33:19;;;;;;;11.75;4.53;;;;;;;;;;4939142;29;20043;-74
2022/10/14 11:36:32;;;;;;;8.70;4.55;;;;;;;;;;4938754;29;20067;-75
2022/10/14 11:39:58;;;;;;;7.13;4.55;;;;;;;;;;4938588;29;20056;-75
2022/10/14 11:42:51;;;;;;;8.07;4.18;;;;;;;;;;4932463;29;20036;-74
2022/10/14 11:45:47;;;;;;;8.32;4.50;;;;;;;;;;4938772;29;20394;-74
2022/10/14 11:48:55;;;;;;;11.93;5.15;;;;;;;;;;4944478;29;20047;-75
2022/10/14 11:51:51;;;;;;;9.48;4.43;;;;;;;;;;4938531;29;20048;-74
2022/10/14 11:54:55;;;;;;;8.10;5.00;;;;;;;;;;4938406;29;20398;-75
2022/10/14 11:57:45;;;;;;;9.43;5.03;;;;;;;;;;4938409;29;20043;-75
2022/10/14 12:03:47;;;;;;;10.25;4.65;;;;;;;;;;4938179;29;20051;-74
2022/10/14 12:06:36;;;;;;;8.38;4.90;;;;;;;;;;4938441;29;20470;-74
2022/10/14 12:09:52;;;;;;;6.18;4.40;;;;;;;;;;4938143;29;20044;-75
2022/10/14 12:12:40;;;;;;;11.30;4.28;;;;;;;;;;4944508;29;20039;-74
2022/10/14 12:15:27;;;;;;;12.02;5.10;;;;;;;;;;4938167;29;20397;-75
2022/10/14 12:18:12;;;;;;;19.40;5.30;;;;;;;;;;4944746;29;20040;-74
2022/10/14 12:21:20;;;;;;;12.80;4.85;;;;;;;;;;4938221;29;20055;-74
2022/10/14 12:24:13;;;;;;;11.95;5.60;;;;;;;;;;4944592;29;20043;-74
2022/10/14 12:27:04;;;;;;;9.93;4.97;;;;;;;;;;4938342;29;20039;-74
2022/10/14 12:29:51;;;;;;;9.85;4.20;;;;;;;;;;4937730;29;20059;-74
2022/10/14 12:33:01;;;;;;;12.02;4.70;;;;;;;;;;4937694;29;20055;-74
2022/10/14 12:35:59;;;;;;;10.35;4.95;;;;;;;;;;4937641;29;20039;-74
2022/10/14 12:39:16;;;;;;;12.73;5.97;;;;;;;;;;4938155;29;20039;-75
2022/10/14 12:42:11;;;;;;;16.75;5.57;;;;;;;;;;4943195;29;20040;-75
2022/10/14 12:45:00;;;;;;;30.45;7.95;;;;;;;;;;4938048;29;20044;-75
2022/10/14 12:47:46;;;;;;;7.45;4.90;;;;;;;;;;4938112;29;20044;-74
2022/10/14 12:50:37;;;;;;;7.43;5.18;;;;;;;;;;4940491;29;20490;-75
2022/10/14 12:53:31;;;;;;;11.68;4.80;;;;;;;;;;4937527;29;20043;-74
2022/10/14 12:56:36;;;;;;;8.18;5.10;;;;;;;;;;4943716;29;20044;-75
2022/10/14 12:59:27;;;;;;;14.88;4.95;;;;;;;;;;4937659;29;20039;-75
2022/10/14 13:02:23;;;;;;;8.77;4.65;;;;;;;;;;4937427;29;20498;-75
2022/10/14 13:05:32;;;;;;;12.23;5.43;;;;;;;;;;4943466;29;20043;-74
2022/10/14 13:08:18;;;;;;;7.75;4.88;;;;;;;;;;4921862;29;20040;-75
2022/10/14 13:11:09;;;;;;;8.35;4.20;;;;;;;;;;4937280;29;20493;-74
2022/10/14 13:13:59;;;;;;;5.85;3.72;;;;;;;;;;4937099;29;20056;-74
2022/10/14 13:16:45;;;;;;;11.23;4.60;;;;;;;;;;4937318;29;20390;-74
2022/10/14 13:19:35;;;;;;;10.65;5.22;;;;;;;;;;4936914;29;20043;-76
2022/10/14 13:22:27;;;;;;;11.32;5.45;;;;;;;;;;4935590;29;20059;-74
2022/10/14 13:25:19;;;;;;;12.05;4.82;;;;;;;;;;4937063;29;20043;-74
2022/10/14 13:28:22;;;;;;;9.65;5.15;;;;;;;;;;4943438;29;20048;-75
2022/10/14 13:31:16;;;;;;;7.57;4.38;;;;;;;;;;4943271;29;20486;-74
2022/10/14 13:34:23;;;;;;;12.10;4.20;;;;;;;;;;4936997;29;20047;-74
2022/10/14 13:37:26;;;;;;;9.25;4.68;;;;;;;;;;4936719;29;20052;-74
2022/10/14 13:40:33;;;;;;;8.95;4.45;;;;;;;;;;4935400;29;20040;-76
2022/10/14 13:43:40;;;;;;;7.20;4.30;;;;;;;;;;4936655;29;20051;-76
2022/10/14 13:46:26;;;;;;;9.70;4.25;;;;;;;;;;4935759;29;20052;-73
2022/10/14 13:49:16;;;;;;;13.60;4.40;;;;;;;;;;4936053;29;20048;-73
2022/10/14 13:52:04;;;;;;;10.55;3.42;;;;;;;;;;4943004;29;20039;-73
2022/10/14 13:55:14;;;;;;;7.95;3.45;;;;;;;;;;4936420;29;20044;-74
2022/10/14 13:58:03;;;;;;;4.90;3.78;;;;;;;;;;4936696;29;20044;-75
2022/10/14 14:00:57;;;;;;;6.43;3.92;;;;;;;;;;4936274;29;20044;-74
2022/10/14 14:03:44;;;;;;;;;;;;;;;;;;4936693;29;20051;-75
2022/10/14 14:06:31;;;;;;;12.25;4.03;;;;;;;;;;4936136;29;20267;-75
2022/10/14 14:09:27;;;;;;;9.15;3.95;;;;;;;;;;4935971;29;20043;-75
2022/10/14 14:12:14;;;;;;;11.38;4.38;;;;;;;;;;4936180;29;20052;-75
2022/10/14 14:14:59;;;;;;;8.70;4.22;;;;;;;;;;4942541;29;20048;-75
2022/10/14 14:17:45;;;;;;;10.57;4.60;;;;;;;;;;4936289;29;20047;-75
2022/10/14 14:20:32;;;;;;;7.93;4.30;;;;;;;;;;4935999;29;20047;-75
2022/10/14 14:23:18;;;;;;;6.88;4.00;;;;;;;;;;4941820;29;20056;-75
2022/10/14 14:26:03;;;;;;;8.80;4.05;;;;;;;;;;4935635;29;20040;-73
2022/10/14 14:28:48;;;;;;;9.32;4.50;;;;;;;;;;4936003;29;20040;-74
2022/10/14 14:31:34;;;;;;;8.45;4.50;;;;;;;;;;4942389;29;20051;-75
2022/10/14 14:34:22;;;;;;;12.20;4.53;;;;;;;;;;4935991;29;20398;-74
2022/10/14 14:37:13;;;;;;;11.68;4.45;;;;;;;;;;4936339;29;20473;-74
2022/10/14 14:40:01;;;;;;;10.55;5.20;;;;;;;;;;4942654;29;20043;-73
2022/10/14 14:42:54;;;;;;;10.93;4.97;;;;;;;;;;4935849;29;20509;-73
2022/10/14 14:45:42;;;;;;;10.02;5.15;;;;;;;;;;4936100;29;20044;-74
2022/10/14 14:48:29;;;;;;;9.00;5.32;;;;;;;;;;4935840;29;20044;-75
2022/10/14 14:51:15;;;;;;;12.82;5.60;;;;;;;;;;4935600;29;20098;-73
2022/10/14 14:54:01;;;;;;;14.18;7.65;;;;;;;;;;4936165;29;20052;-74
2022/10/14 14:56:49;;;;;;;14.43;5.25;;;;;;;;;;4937346;29;20052;-74
2022/10/14 14:59:42;;;;;;;8.00;4.05;;;;;;;;;;4939340;29;20059;-74
2022/10/14 15:02:30;;;;;;;9.05;4.05;;;;;;;;;;4939186;29;20047;-74
2022/10/14 15:05:18;;;;;;;8.20;4.00;;;;;;;;;;4945791;29;20397;-75
2022/10/14 15:08:03;;;;;;;7.32;3.70;;;;;;;;;;4944618;29;20055;-75
2022/10/14 15:10:52;;;;;;;14.93;8.23;;;;;;;;;;4939434;29;20043;-75
2022/10/14 15:13:36;;;;;;;15.95;11.02;;;;;;;;;;4939097;29;20051;-75
2022/10/14 15:16:40;;;;;;;16.92;8.52;;;;;;;;;;4938906;29;20043;-75
2022/10/14 15:19:32;;;;;;;16.77;8.05;;;;;;;;;;4938798;29;20047;-75
2022/10/14 15:22:29;;;;;;;11.95;7.15;;;;;;;;;;4944222;29;20047;-75
2022/10/14 15:25:29;;;;;;;14.25;7.10;;;;;;;;;;4939054;29;20056;-75
2022/10/14 15:28:28;;;;;;;13.50;5.93;;;;;;;;;;4945134;29;20051;-74
2022/10/14 15:31:16;;;;;;;14.77;6.32;;;;;;;;;;4945256;29;20047;-74
2022/10/14 15:34:02;;;;;;;10.48;5.75;;;;;;;;;;4938330;29;20056;-75
2022/10/14 15:36:50;;;;;;;9.55;5.50;;;;;;;;;;4939003;29;20040;-75
2022/10/14 15:39:34;;;;;;;9.90;6.55;;;;;;;;;;4938942;29;20040;-77
2022/10/14 15:42:19;;;;;;;17.33;7.75;;;;;;;;;;4938690;29;20047;-76
2022/10/14 15:45:05;;;;;;;13.55;7.07;;;;;;;;;;4938204;29;20056;-76
2022/10/14 15:48:00;;;;;;;13.23;7.10;;;;;;;;;;4938431;29;20051;-75
2022/10/14 15:50:47;;;;;;;14.70;8.48;;;;;;;;;;4933799;29;20047;-74
2022/10/14 15:53:32;;;;;;;23.30;11.48;;;;;;;;;;4937615;29;20039;-75
2022/10/14 15:56:19;;;;;;;43.70;17.45;;;;;;;;;;4936283;29;20497;-76
2022/10/14 15:59:05;;;;;;;52.25;20.90;;;;;;;;;;4937262;29;20043;-75
2022/10/14 16:01:50;;;;;;;38.20;16.27;;;;;;;;;;4923446;29;20047;-75
2022/10/14 16:04:36;;;;;;;29.42;12.65;;;;;;;;;;4937998;29;20044;-75
2022/10/14 16:07:21;;;;;;;27.38;12.27;;;;;;;;;;4938232;29;20044;-75
2022/10/14 16:10:11;;;;;;;19.27;10.82;;;;;;;;;;4944412;29;20047;-75
2022/10/14 16:12:56;;;;;;;21.20;11.05;;;;;;;;;;4937551;29;20044;-77
2022/10/14 16:15:57;;;;;;;36.88;13.43;;;;;;;;;;4943808;29;20083;-81
2022/10/14 16:18:43;;;;;;;41.85;24.48;;;;;;;;;;4931833;29;20040;-83
2022/10/14 16:21:28;;;;;;;36.08;21.98;;;;;;;;;;4944157;29;20491;-77
2022/10/14 16:24:17;;;;;;;32.38;16.83;;;;;;;;;;4936805;29;20051;-78
2022/10/14 16:27:02;;;;;;;30.42;16.90;;;;;;;;;;4937611;29;20043;-78
2022/10/14 16:29:48;;;;;;;30.05;15.93;;;;;;;;;;4943239;29;20039;-79
2022/10/14 16:32:33;;;;;;;39.28;14.75;;;;;;;;;;4944406;29;20086;-79
2022/10/14 16:35:19;;;;;;;26.30;12.95;;;;;;;;;;4937460;29;20056;-78
2022/10/14 16:38:05;;;;;;;26.00;14.63;;;;;;;;;;4937305;29;20060;-78
2022/10/14 16:41:00;;;;;;;36.55;18.05;;;;;;;;;;4937494;29;20047;-78
2022/10/14 16:43:46;;;;;;;37.55;20.50;;;;;;;;;;4937508;29;20048;-78
2022/10/14 16:47:18;;;;;;;35.90;16.95;;;;;;;;;;4943739;29;20047;-78
2022/10/14 16:49:39;;;;;;;34.00;16.88;;;;;;;;;;4935133;29;20048;-78
2022/10/14 16:52:25;;;;;;;26.63;15.77;;;;;;;;;;4937260;29;20489;-78
2022/10/14 16:55:12;;;;;;;36.28;14.40;;;;;;;;;;4937238;29;20482;-78